createdAt,value
2023-04-19T00:01:35.951Z,40.93
2023-04-19T00:04:04.647Z,41.01
2023-04-19T00:06:33.701Z,40.85
2023-04-19T00:09:03.925Z,40.86
2023-04-19T00:11:34.277Z,41.19
2023-04-19T00:14:03.038Z,41.13
2023-04-19T00:16:33.919Z,41.10
2023-04-19T00:19:02.592Z,41.33
2023-04-19T00:21:31.561Z,41.45
2023-04-19T00:24:00.102Z,41.46
2023-04-19T00:26:30.646Z,41.49
2023-04-19T00:28:58.900Z,41.46
2023-04-19T00:31:28.274Z,41.57
2023-04-19T00:33:58.031Z,41.65
2023-04-19T00:36:26.778Z,41.54
2023-04-19T00:38:54.939Z,41.58
2023-04-19T00:41:23.827Z,41.51
2023-04-19T00:43:54.478Z,41.46
2023-04-19T00:46:26.560Z,41.52
2023-04-19T00:48:57.165Z,41.45
2023-04-19T00:51:53.938Z,41.49
2023-04-19T00:54:40.206Z,41.50
2023-04-19T00:57:09.665Z,41.51
2023-04-19T00:59:42.557Z,41.44
2023-04-19T01:02:12.158Z,41.72
2023-04-19T01:04:40.511Z,41.70
2023-04-19T01:07:10.779Z,41.68
2023-04-19T01:09:43.035Z,41.86
2023-04-19T01:12:12.266Z,41.84
2023-04-19T01:14:42.428Z,41.80
2023-04-19T01:17:11.086Z,41.74
2023-04-19T01:19:39.903Z,41.82
2023-04-19T01:22:21.053Z,41.51
2023-04-19T01:24:53.029Z,41.74
2023-04-19T01:27:23.049Z,41.80
2023-04-19T01:30:06.895Z,41.86
2023-04-19T01:32:35.499Z,42.02
2023-04-19T01:35:04.809Z,41.88
2023-04-19T01:37:44.916Z,41.98
2023-04-19T01:40:17.465Z,41.97
2023-04-19T01:42:46.401Z,42.07
2023-04-19T01:45:14.555Z,42.21
2023-04-19T01:47:42.874Z,42.26
2023-04-19T01:50:12.484Z,42.20
2023-04-19T01:52:40.750Z,42.37
2023-04-19T01:55:10.879Z,42.70
2023-04-19T01:57:48.356Z,42.47
2023-04-19T02:00:19.378Z,42.20
2023-04-19T02:02:58.984Z,42.55
2023-04-19T02:11:38.292Z,42.27
2023-04-19T02:14:09.046Z,42.50
2023-04-19T02:16:38.779Z,42.48
2023-04-19T02:19:07.064Z,42.57
2023-04-19T02:21:36.608Z,42.73
2023-04-19T02:24:05.065Z,42.75
2023-04-19T02:26:33.918Z,43.09
2023-04-19T02:29:02.668Z,42.80
2023-04-19T02:31:33.759Z,43.27
2023-04-19T02:34:02.144Z,43.21
2023-04-19T02:36:31.249Z,43.42
2023-04-19T02:39:00.331Z,43.56
2023-04-19T02:41:28.825Z,43.61
2023-04-19T02:43:57.674Z,43.63
2023-04-19T02:46:26.004Z,43.68
2023-04-19T02:48:56.579Z,43.93
2023-04-19T02:51:24.985Z,43.76
2023-04-19T02:53:53.094Z,43.79
2023-04-19T02:56:21.990Z,44.06
2023-04-19T02:58:50.514Z,44.18
2023-04-19T03:01:20.009Z,44.07
2023-04-19T03:03:48.619Z,44.09
2023-04-19T03:06:19.830Z,44.28
2023-04-19T03:08:48.076Z,44.02
2023-04-19T03:11:17.850Z,44.41
2023-04-19T03:13:46.433Z,44.84
2023-04-19T03:16:14.621Z,44.84
2023-04-19T03:18:43.075Z,45.03
2023-04-19T03:21:11.416Z,44.98
2023-04-19T03:23:41.415Z,45.49
2023-04-19T03:26:09.660Z,45.45
2023-04-19T03:28:38.453Z,45.32
2023-04-19T03:31:06.740Z,45.82
2023-04-19T03:33:34.756Z,45.83
2023-04-19T03:36:02.858Z,45.79
2023-04-19T03:38:31.361Z,45.73
2023-04-19T03:41:03.805Z,46.10
2023-04-19T03:43:32.084Z,46.00
2023-04-19T03:46:00.248Z,46.06
2023-04-19T03:48:28.430Z,46.03
2023-04-19T03:50:56.498Z,46.22
2023-04-19T03:53:24.495Z,46.11
2023-04-19T03:55:53.152Z,46.35
2023-04-19T03:58:23.530Z,46.30
2023-04-19T04:00:52.094Z,45.89
2023-04-19T04:03:20.580Z,46.12
2023-04-19T04:05:48.679Z,46.20
2023-04-19T04:08:16.737Z,46.28
2023-04-19T04:10:44.758Z,46.18
2023-04-19T04:13:12.726Z,46.35
2023-04-19T04:15:42.461Z,46.30
2023-04-19T04:18:12.135Z,46.13
2023-04-19T04:20:40.484Z,46.45
2023-04-19T04:23:11.290Z,46.67
2023-04-19T04:25:39.365Z,46.41
2023-04-19T04:28:10.235Z,46.49
2023-04-19T04:30:38.652Z,46.72
2023-04-19T04:33:08.793Z,46.81
2023-04-19T04:35:36.992Z,46.88
2023-04-19T04:38:17.506Z,47.00
2023-04-19T04:40:53.759Z,46.96
2023-04-19T04:43:22.895Z,46.97
2023-04-19T04:45:51.454Z,47.00
2023-04-19T04:48:22.705Z,47.21
2023-04-19T04:50:50.900Z,47.27
2023-04-19T04:53:19.185Z,47.38
2023-04-19T04:55:47.679Z,47.40
2023-04-19T04:58:16.649Z,47.35
2023-04-19T05:00:45.495Z,47.50
2023-04-19T05:03:14.129Z,47.46
2023-04-19T05:05:45.242Z,47.22
2023-04-19T05:08:13.639Z,47.60
2023-04-19T05:10:41.829Z,47.66
2023-04-19T05:13:10.221Z,47.60
2023-04-19T05:15:38.298Z,47.76
2023-04-19T05:18:07.272Z,47.70
2023-04-19T05:20:35.753Z,47.83
2023-04-19T05:23:05.944Z,48.17
2023-04-19T05:25:34.134Z,48.08
2023-04-19T05:28:03.893Z,48.23
2023-04-19T05:30:31.992Z,48.19
2023-04-19T05:33:00.525Z,48.30
2023-04-19T05:35:28.710Z,47.97
2023-04-19T05:37:57.218Z,48.56
2023-04-19T05:40:26.965Z,48.13
2023-04-19T05:42:58.042Z,48.29
2023-04-19T05:45:27.117Z,48.29
2023-04-19T05:47:55.655Z,48.36
2023-04-19T05:50:23.761Z,48.30
2023-04-19T05:52:51.909Z,48.27
2023-04-19T05:55:20.243Z,48.25
2023-04-19T05:57:50.970Z,48.59
2023-04-19T06:00:19.821Z,48.40
2023-04-19T06:02:48.206Z,48.63
2023-04-19T06:05:16.786Z,48.21
2023-04-19T06:07:54.527Z,48.44
2023-04-19T06:10:25.853Z,48.36
2023-04-19T06:12:58.427Z,48.39
2023-04-19T06:15:27.767Z,48.37
2023-04-19T06:17:57.524Z,48.29
2023-04-19T06:20:27.585Z,48.20
2023-04-19T06:22:55.599Z,48.46
2023-04-19T06:25:24.190Z,48.39
2023-04-19T06:27:52.533Z,48.13
2023-04-19T06:30:22.108Z,48.06
2023-04-19T06:32:50.296Z,48.10
2023-04-19T06:35:19.627Z,48.16
2023-04-19T06:37:47.723Z,47.96
2023-04-19T06:40:15.818Z,48.19
2023-04-19T06:42:43.999Z,48.28
2023-04-19T06:45:13.184Z,48.28
2023-04-19T06:47:43.112Z,48.40
2023-04-19T06:50:13.819Z,48.71
2023-04-19T06:52:42.224Z,48.47
2023-04-19T06:55:11.294Z,48.56
2023-04-19T06:57:39.747Z,48.85
2023-04-19T07:00:10.586Z,49.16
2023-04-19T07:02:39.183Z,49.17
2023-04-19T07:05:12.975Z,49.01
2023-04-19T07:07:41.477Z,49.08
2023-04-19T07:10:11.345Z,49.03
2023-04-19T07:12:48.772Z,49.23
2023-04-19T07:15:17.564Z,49.13
2023-04-19T07:17:47.060Z,48.86
2023-04-19T07:20:17.969Z,48.91
2023-04-19T07:22:46.580Z,48.56
2023-04-19T07:25:16.564Z,48.56
2023-04-19T07:27:45.178Z,48.25
2023-04-19T07:30:13.556Z,47.87
2023-04-19T07:32:42.063Z,48.29
2023-04-19T07:35:10.954Z,47.97
2023-04-19T07:37:40.619Z,47.81
2023-04-19T07:40:10.215Z,47.91
2023-04-19T07:42:40.875Z,47.50
2023-04-19T07:45:11.512Z,47.80
2023-04-19T07:47:39.838Z,47.50
2023-04-19T07:50:10.731Z,47.16
2023-04-19T07:52:40.233Z,47.42
2023-04-19T07:55:09.601Z,47.32
2023-04-19T07:57:37.873Z,46.83
2023-04-19T08:00:07.099Z,46.90
2023-04-19T08:02:35.488Z,46.85
2023-04-19T08:05:04.140Z,46.54
2023-04-19T08:07:33.033Z,46.17
2023-04-19T08:10:02.695Z,46.19
2023-04-19T08:12:39.295Z,45.87
2023-04-19T08:15:32.931Z,45.69
2023-04-19T08:17:59.900Z,45.43
2023-04-19T08:20:29.188Z,45.46
2023-04-19T08:23:00.512Z,45.33
2023-04-19T08:25:32.164Z,45.51
2023-04-19T08:28:00.334Z,45.45
2023-04-19T08:30:37.653Z,45.35
2023-04-19T08:33:06.951Z,45.09
2023-04-19T08:35:36.931Z,45.52
2023-04-19T08:38:08.592Z,45.42
2023-04-19T08:40:49.378Z,45.36
2023-04-19T08:43:19.380Z,45.16
2023-04-19T08:45:49.561Z,45.25
2023-04-19T08:48:20.133Z,45.01
2023-04-19T08:51:04.175Z,44.84
2023-04-19T08:53:35.027Z,44.41
2023-04-19T08:56:21.095Z,44.48
2023-04-19T08:59:19.315Z,44.38
2023-04-19T09:01:48.695Z,44.31
2023-04-19T09:04:35.456Z,44.56
2023-04-19T09:07:05.146Z,44.33
2023-04-19T09:09:42.869Z,44.43
2023-04-19T09:12:19.438Z,44.40
2023-04-19T09:17:19.954Z,44.66
2023-04-19T09:19:49.253Z,44.56
2023-04-19T09:22:18.066Z,44.66
2023-04-19T09:27:27.356Z,44.56
2023-04-19T09:29:56.138Z,44.48
2023-04-19T09:32:25.271Z,44.84
2023-04-19T09:34:56.038Z,45.04
2023-04-19T09:39:56.302Z,45.28
2023-04-19T09:42:47.358Z,45.32
2023-04-19T09:45:29.236Z,45.32
2023-04-19T09:48:07.725Z,44.83
2023-04-19T09:50:50.315Z,45.09
2023-04-19T09:53:24.930Z,44.83
2023-04-19T09:56:01.539Z,44.82
2023-04-19T09:58:42.508Z,44.87
2023-04-19T10:01:20.307Z,44.13
2023-04-19T10:03:51.515Z,43.99
2023-04-19T10:08:56.000Z,42.85
2023-04-19T10:11:27.019Z,42.86
2023-04-19T10:14:01.248Z,42.24
2023-04-19T10:16:32.750Z,41.86
2023-04-19T10:19:02.433Z,41.37
2023-04-19T10:21:31.097Z,41.48
2023-04-19T10:24:00.160Z,41.43
2023-04-19T10:26:28.547Z,41.78
2023-04-19T10:28:58.861Z,42.18
2023-04-19T10:31:28.026Z,41.97
2023-04-19T10:33:57.832Z,41.72
2023-04-19T10:36:29.974Z,41.07
2023-04-19T10:38:58.097Z,41.24
2023-04-19T10:41:59.623Z,41.62
2023-04-19T10:44:29.937Z,41.45
2023-04-19T10:46:59.940Z,41.15
2023-04-19T10:49:30.050Z,40.77
2023-04-19T10:52:00.476Z,40.68
2023-04-19T10:54:34.495Z,40.30
2023-04-19T10:57:05.694Z,40.27
2023-04-19T10:59:35.923Z,40.49
2023-04-19T11:02:06.741Z,40.90
2023-04-19T11:05:14.215Z,40.62
2023-04-19T11:07:43.897Z,40.30
2023-04-19T11:10:12.976Z,40.03
2023-04-19T11:12:45.275Z,40.31
2023-04-19T11:15:14.769Z,40.37
2023-04-19T11:17:43.043Z,40.11
2023-04-19T11:20:13.601Z,40.40
2023-04-19T11:22:44.099Z,40.42
2023-04-19T11:25:14.247Z,40.47
2023-04-19T11:27:44.505Z,40.43
2023-04-19T11:30:17.504Z,40.46
2023-04-19T11:32:52.896Z,40.26
2023-04-19T11:35:23.185Z,40.32
2023-04-19T11:37:53.420Z,40.23
2023-04-19T11:40:23.846Z,40.17
2023-04-19T11:42:56.519Z,40.29
2023-04-19T11:45:35.528Z,40.36
2023-04-19T11:48:09.755Z,40.31
2023-04-19T11:50:39.839Z,40.09
2023-04-19T11:53:14.090Z,39.78
2023-04-19T11:55:47.782Z,39.88
2023-04-19T11:58:33.923Z,39.93
2023-04-19T12:01:10.169Z,39.62
2023-04-19T12:03:46.460Z,39.95
2023-04-19T12:06:16.373Z,39.94
2023-04-19T12:08:47.517Z,39.95
2023-04-19T12:13:44.596Z,40.00
2023-04-19T12:16:15.174Z,39.86
2023-04-19T12:18:45.482Z,39.84
2023-04-19T12:21:26.479Z,39.81
2023-04-19T12:23:59.125Z,39.46
2023-04-19T12:26:28.677Z,39.17
2023-04-19T12:28:57.665Z,39.01
2023-04-19T12:31:27.922Z,38.80
2023-04-19T12:33:56.389Z,38.91
2023-04-19T12:36:26.586Z,38.82
2023-04-19T12:38:54.866Z,38.94
2023-04-19T12:41:23.099Z,38.88
2023-04-19T12:43:51.501Z,38.77
2023-04-19T12:46:20.201Z,38.59
2023-04-19T12:48:50.087Z,38.42
2023-04-19T12:51:18.172Z,38.03
2023-04-19T12:53:49.684Z,38.08
2023-04-19T12:56:19.873Z,37.32
2023-04-19T12:58:48.405Z,37.26
2023-04-19T13:01:19.939Z,37.01
2023-04-19T13:03:50.376Z,37.09
2023-04-19T13:06:19.080Z,36.79
2023-04-19T13:08:47.915Z,37.17
2023-04-19T13:11:17.887Z,38.26
2023-04-19T13:13:46.600Z,38.40
2023-04-19T13:16:20.104Z,38.08
2023-04-19T13:18:51.441Z,37.49
2023-04-19T13:21:23.431Z,36.78
2023-04-19T13:23:52.129Z,36.34
2023-04-19T13:26:20.698Z,35.89
2023-04-19T13:28:48.921Z,34.85
2023-04-19T13:31:18.109Z,34.50
2023-04-19T13:33:46.995Z,33.42
2023-04-19T13:36:19.966Z,32.11
2023-04-19T13:38:50.063Z,31.89
2023-04-19T13:41:18.923Z,31.80
2023-04-19T13:43:48.713Z,30.62
2023-04-19T13:46:17.543Z,30.34
2023-04-19T13:48:46.364Z,28.88
2023-04-19T13:51:15.085Z,28.05
2023-04-19T13:53:50.225Z,27.93
2023-04-19T13:56:18.675Z,27.44
2023-04-19T13:58:47.196Z,26.78
2023-04-19T14:01:16.948Z,27.12
2023-04-19T14:03:46.746Z,26.78
2023-04-19T14:06:15.204Z,26.64
2023-04-19T14:08:49.629Z,25.90
2023-04-19T14:11:21.864Z,26.17
2023-04-19T14:13:50.648Z,25.92
2023-04-19T14:16:19.203Z,25.41
2023-04-19T14:18:47.712Z,25.22
2023-04-19T14:21:16.320Z,25.07
2023-04-19T14:23:46.105Z,25.76
2023-04-19T14:26:14.330Z,25.11
2023-04-19T14:28:45.407Z,25.11
2023-04-19T14:31:17.606Z,24.91
2023-04-19T14:33:46.552Z,24.90
2023-04-19T14:36:14.776Z,24.73
2023-04-19T14:38:43.209Z,24.12
2023-04-19T14:41:16.671Z,23.90
2023-04-19T14:43:46.521Z,23.70
2023-04-19T14:46:15.428Z,23.22
2023-04-19T14:48:44.342Z,23.14
2023-04-19T14:51:12.829Z,22.96
2023-04-19T14:53:41.496Z,22.66
2023-04-19T14:56:10.085Z,22.74
2023-04-19T14:58:40.091Z,22.41
2023-04-19T15:01:15.354Z,22.02
2023-04-19T15:03:48.893Z,21.78
2023-04-19T15:06:20.887Z,21.63
2023-04-19T15:11:41.204Z,21.84
2023-04-19T15:14:13.349Z,21.60
2023-04-19T15:19:30.003Z,21.42
2023-04-19T15:22:09.713Z,20.89
2023-04-19T15:24:38.153Z,20.92
2023-04-19T15:27:07.313Z,20.91
2023-04-19T15:29:42.274Z,20.67
2023-04-19T15:32:25.845Z,20.71
2023-04-19T15:34:54.564Z,21.21
2023-04-19T15:37:32.206Z,21.53
2023-04-19T15:40:09.798Z,22.43
2023-04-19T15:42:38.199Z,23.57
2023-04-19T15:45:12.667Z,24.69
2023-04-19T15:47:55.331Z,25.71
2023-04-19T15:53:37.093Z,24.22
2023-04-19T15:58:49.323Z,23.49
2023-04-19T16:07:05.413Z,21.60
2023-04-19T16:15:18.036Z,20.93
2023-04-19T16:21:30.274Z,20.35
2023-04-19T16:24:02.598Z,20.15
2023-04-19T16:29:21.039Z,19.66
2023-04-19T16:34:25.713Z,19.64
2023-04-19T16:36:56.042Z,19.63
2023-04-19T16:39:24.406Z,19.45
2023-04-19T16:41:52.968Z,19.86
2023-04-19T16:44:21.029Z,19.64
2023-04-19T16:47:12.002Z,19.50
2023-04-19T16:49:41.894Z,19.13
2023-04-19T16:59:03.666Z,18.89
2023-04-19T18:23:40.078Z,22.78
2023-04-19T19:23:18.224Z,35.45
2023-04-19T19:26:37.130Z,35.66
2023-04-19T19:38:57.805Z,36.80
2023-04-19T19:41:56.308Z,37.05
2023-04-19T19:44:15.888Z,37.16
2023-04-19T19:46:58.706Z,37.51
2023-04-19T19:49:42.012Z,37.72
2023-04-19T19:59:30.159Z,38.25
2023-04-19T20:02:26.615Z,38.27
2023-04-19T20:11:08.082Z,38.76
2023-04-19T20:13:37.182Z,38.77
2023-04-19T20:19:40.855Z,39.01
2023-04-19T20:45:19.200Z,37.76
2023-04-19T20:50:23.170Z,37.47
2023-04-19T21:20:23.581Z,36.25
2023-04-19T21:22:55.651Z,36.01
2023-04-19T21:25:24.246Z,35.82
2023-04-19T21:27:55.090Z,35.79
2023-04-19T22:35:02.707Z,35.50
2023-04-19T23:44:38.384Z,37.13
2023-04-19T23:47:23.505Z,37.10
2023-04-19T23:52:43.021Z,37.28
2023-04-19T23:58:21.622Z,37.26
